Lublin, WI

9:34 AM CST on March 04, 2015 (GMT -0600)
WIDOT Stanley - STH 29 @ CTH H | Change Station
CLOSE
Current Station
Personal Weather Station
Location: Stanley, WI
Elevation: 1070 ft
Nearby Weather Stations

Elev 1070 ft 44.95 °N, 90.94 °W | Updated 36 minutes ago

Clear
Clear
2 °F
Feels Like -16 °F
N
14
Wind Variable Wind from WNW
Gusts 22.0 mph

Today
High -- | Low -- °F
--% Chance of Precip.
Yesterday
High -- | Low -- °F
Precip. -- in
6:35 AM 5:53 PM
Waxing Gibbous, 99% visible
Pressure 30.05 in
Visibility 7.0 miles
Clouds Clear
Windchill -16 °F
Dew Point -6 °F
Humidity 70%
Rainfall -999.00 in
Snow Depth Not available.
UV 2 out of 12
Pollen .50 out of 12
Air Quality Not available.
Flu Activity Not available.
METAR KMDZ 041515Z AUTO 30011G16KT 7SM CLR M17/M23 A3005 RMK AO2 T11751234

More Conditions Fewer Conditions

Pressure 30.05 in
Visibility 7.0 miles
Clouds Clear
Windchill -16 °F
Dew Point -6 °F
Humidity 70%
Rainfall -999.00 in
Snow Depth Not available.
UV 2 out of 12
Pollen .50 out of 12
Air Quality Not available.
Flu Activity Not available.
METAR KMDZ 041515Z AUTO 30011G16KT 7SM CLR M17/M23 A3005 RMK AO2 T11751234

More Conditions Fewer Conditions

10-Day Weather Forecast

Almanac

Astronomy

Mar. 04, 2015 Rise Set
Actual Time
Civil Twilight
Nautical Twilight
Astronomical Twilight
Moon
Length of Visible Light
Length of Day
Tomorrow will be .
, % of the Moon is Illuminated

Today's Extremes

State Highs State Lows

Community

WunderPhotos

Upload Photos

1,802,490 photos uploaded!

WunderBlogs® & News

Nearby

Air Quality

  Air Quality AQ Index Pollutant
Not available.

Snow Depth

Station Depth Elevation

Earthquake Activity

City Distance Mag. Time & Date
Minimum magnitude displayed is 2.5.

Coastal Water Temperatures

Place Temperature

Nearby Weather Stations